メインページ
METAR-TAF:

METAR-TAF

空港 :

ブルネイ国際空港

ブルネイ, ブルネイ

緯度: 04-56N, 経度: 114-56E, 海抜: 22m

現時点の気象観測

当レポートは24分前の14:00(UTC)に作成
南西の風 1kt
気温 27°C
湿度 89%
気圧 1010 hPa
視程: 9000m
高度1500ftの雲はほとんどない
高度30000ftの千切れ雲あり

METAR: WBSB 201400Z 23001KT 9000 FEW015 BKN300 27/25 Q1010 NOSIG

時間: 22:24 (14:24 UTC)

予報

当レポートは3時間34分前の10:50(UTC)に作成
予報は20日の 12時(UTC)から 21日の 18時(UTC)まで有効
南/南西の風 3kt
視程: 8000m
高度1500ftの雲は散在している
高度1600ftの雲はほとんどない, 積乱雲.
20日の 13時(UTC)から 20日の 15時(UTC)まで一時的に
視程: 7000m
にわか雨
21日の 02時(UTC)から 21日の 04時(UTC)まで徐々に
西の風 10kt
高度1600ftの雲は散在している
高度1700ftの雲はほとんどない, 積乱雲.

TAF: WBSB 201050Z 2012/2118 20003KT 8000 SCT015 FEW016CB TEMPO 2013/2015 7000 SHRA BECMG 2102/2104 26010KT SCT016 FEW017CB

4,000以上の空港の気象観測と天気予報(METAR報とTAF報)

利用可能な観測所は地図上に黄色い丸と赤い丸で示す。

丸の上にカーソルを重ねると観測所名を参照できる。

次にクリックすると気象観測と天気予報を参照できる。

マップの切り替え:黒色「×」印の緑ボタンをクリックして拡大、「-」印の緑ボタンをクリックして縮小、緑色の三角印をクリックして隣りの地図に切り替え


METAR-TAF: